sensor_id;sensor_type;location;lat;lon;timestamp;P1;durP1;ratioP1;P2;durP2;ratioP2
40729;SDS011;26418;50.070;8.436;2023-05-20T00:00:51;5.70;;;2.63;;
40729;SDS011;26418;50.070;8.436;2023-05-20T00:03:17;5.30;;;2.42;;
40729;SDS011;26418;50.070;8.436;2023-05-20T00:05:44;5.15;;;2.58;;
40729;SDS011;26418;50.070;8.436;2023-05-20T00:08:10;3.72;;;2.22;;
40729;SDS011;26418;50.070;8.436;2023-05-20T00:10:36;4.32;;;2.60;;
40729;SDS011;26418;50.070;8.436;2023-05-20T00:13:02;5.03;;;2.35;;
40729;SDS011;26418;50.070;8.436;2023-05-20T00:15:28;2.70;;;1.83;;
40729;SDS011;26418;50.070;8.436;2023-05-20T00:17:54;8.35;;;2.42;;
40729;SDS011;26418;50.070;8.436;2023-05-20T00:20:20;4.32;;;2.17;;
40729;SDS011;26418;50.070;8.436;2023-05-20T00:22:46;4.25;;;2.10;;
40729;SDS011;26418;50.070;8.436;2023-05-20T00:25:11;2.80;;;1.95;;
40729;SDS011;26418;50.070;8.436;2023-05-20T00:27:39;3.28;;;1.95;;
40729;SDS011;26418;50.070;8.436;2023-05-20T00:30:07;4.03;;;1.98;;
40729;SDS011;26418;50.070;8.436;2023-05-20T00:32:34;6.00;;;2.33;;
40729;SDS011;26418;50.070;8.436;2023-05-20T00:35:00;4.28;;;2.60;;
40729;SDS011;26418;50.070;8.436;2023-05-20T00:37:26;3.50;;;2.17;;
40729;SDS011;26418;50.070;8.436;2023-05-20T00:39:52;7.97;;;2.08;;
40729;SDS011;26418;50.070;8.436;2023-05-20T00:44:47;3.90;;;2.08;;
40729;SDS011;26418;50.070;8.436;2023-05-20T00:47:13;7.63;;;2.50;;
40729;SDS011;26418;50.070;8.436;2023-05-20T00:49:40;3.15;;;2.22;;
40729;SDS011;26418;50.070;8.436;2023-05-20T00:52:06;6.57;;;2.80;;
40729;SDS011;26418;50.070;8.436;2023-05-20T00:54:32;4.53;;;2.80;;
40729;SDS011;26418;50.070;8.436;2023-05-20T00:56:58;6.60;;;2.28;;
40729;SDS011;26418;50.070;8.436;2023-05-20T00:59:24;4.80;;;2.50;;
40729;SDS011;26418;50.070;8.436;2023-05-20T01:01:50;4.78;;;2.47;;
40729;SDS011;26418;50.070;8.436;2023-05-20T01:04:16;6.97;;;3.20;;
40729;SDS011;26418;50.070;8.436;2023-05-20T01:06:42;3.97;;;2.65;;
40729;SDS011;26418;50.070;8.436;2023-05-20T01:09:10;3.35;;;2.42;;
40729;SDS011;26418;50.070;8.436;2023-05-20T01:11:49;4.65;;;2.58;;
40729;SDS011;26418;50.070;8.436;2023-05-20T01:14:41;4.97;;;2.30;;
40729;SDS011;26418;50.070;8.436;2023-05-20T01:17:11;2.88;;;2.00;;
40729;SDS011;26418;50.070;8.436;2023-05-20T01:19:42;4.00;;;2.30;;
40729;SDS011;26418;50.070;8.436;2023-05-20T01:22:09;5.03;;;2.60;;
40729;SDS011;26418;50.070;8.436;2023-05-20T01:24:43;2.90;;;2.33;;
40729;SDS011;26418;50.070;8.436;2023-05-20T01:27:12;3.83;;;2.83;;
40729;SDS011;26418;50.070;8.436;2023-05-20T01:29:38;4.90;;;2.30;;
40729;SDS011;26418;50.070;8.436;2023-05-20T01:37:23;5.10;;;2.58;;
40729;SDS011;26418;50.070;8.436;2023-05-20T01:39:50;5.03;;;2.65;;
40729;SDS011;26418;50.070;8.436;2023-05-20T01:42:17;5.60;;;2.65;;
40729;SDS011;26418;50.070;8.436;2023-05-20T01:44:43;3.03;;;2.25;;
40729;SDS011;26418;50.070;8.436;2023-05-20T01:47:09;4.40;;;2.70;;
40729;SDS011;26418;50.070;8.436;2023-05-20T01:49:35;4.85;;;2.47;;
40729;SDS011;26418;50.070;8.436;2023-05-20T01:52:00;8.05;;;2.83;;
40729;SDS011;26418;50.070;8.436;2023-05-20T01:54:26;8.65;;;2.53;;
40729;SDS011;26418;50.070;8.436;2023-05-20T01:56:51;7.40;;;2.63;;
40729;SDS011;26418;50.070;8.436;2023-05-20T01:59:17;7.13;;;2.60;;
40729;SDS011;26418;50.070;8.436;2023-05-20T02:01:43;5.93;;;2.78;;
40729;SDS011;26418;50.070;8.436;2023-05-20T02:04:08;3.63;;;3.05;;
40729;SDS011;26418;50.070;8.436;2023-05-20T02:06:34;5.03;;;3.03;;
40729;SDS011;26418;50.070;8.436;2023-05-20T02:09:00;7.07;;;2.70;;
40729;SDS011;26418;50.070;8.436;2023-05-20T02:11:25;6.70;;;2.50;;
40729;SDS011;26418;50.070;8.436;2023-05-20T02:13:51;4.70;;;2.97;;
40729;SDS011;26418;50.070;8.436;2023-05-20T02:16:17;5.43;;;3.10;;
40729;SDS011;26418;50.070;8.436;2023-05-20T02:18:42;5.85;;;3.13;;
40729;SDS011;26418;50.070;8.436;2023-05-20T02:21:08;3.83;;;2.72;;
40729;SDS011;26418;50.070;8.436;2023-05-20T02:23:34;4.93;;;2.63;;
40729;SDS011;26418;50.070;8.436;2023-05-20T02:25:59;4.68;;;2.78;;
40729;SDS011;26418;50.070;8.436;2023-05-20T02:28:26;6.07;;;3.83;;
40729;SDS011;26418;50.070;8.436;2023-05-20T02:30:51;7.10;;;2.95;;
40729;SDS011;26418;50.070;8.436;2023-05-20T02:33:20;6.72;;;2.90;;
40729;SDS011;26418;50.070;8.436;2023-05-20T02:35:45;7.82;;;2.65;;
40729;SDS011;26418;50.070;8.436;2023-05-20T02:38:11;5.40;;;3.25;;
40729;SDS011;26418;50.070;8.436;2023-05-20T02:40:37;4.80;;;2.75;;
40729;SDS011;26418;50.070;8.436;2023-05-20T02:43:02;5.00;;;2.85;;
40729;SDS011;26418;50.070;8.436;2023-05-20T02:45:28;5.90;;;2.60;;
40729;SDS011;26418;50.070;8.436;2023-05-20T02:47:54;7.78;;;3.05;;
40729;SDS011;26418;50.070;8.436;2023-05-20T02:50:20;5.03;;;2.97;;
40729;SDS011;26418;50.070;8.436;2023-05-20T02:52:48;4.82;;;3.10;;
40729;SDS011;26418;50.070;8.436;2023-05-20T02:55:14;6.63;;;3.17;;
40729;SDS011;26418;50.070;8.436;2023-05-20T02:57:39;7.22;;;2.90;;
40729;SDS011;26418;50.070;8.436;2023-05-20T03:00:10;5.00;;;3.25;;
40729;SDS011;26418;50.070;8.436;2023-05-20T03:02:37;5.28;;;3.20;;
40729;SDS011;26418;50.070;8.436;2023-05-20T03:05:02;3.83;;;2.95;;
40729;SDS011;26418;50.070;8.436;2023-05-20T03:07:29;4.85;;;2.72;;
40729;SDS011;26418;50.070;8.436;2023-05-20T03:09:56;5.20;;;3.33;;
40729;SDS011;26418;50.070;8.436;2023-05-20T03:12:23;6.93;;;3.28;;
40729;SDS011;26418;50.070;8.436;2023-05-20T03:14:51;4.90;;;2.83;;
40729;SDS011;26418;50.070;8.436;2023-05-20T03:17:20;5.75;;;2.97;;
40729;SDS011;26418;50.070;8.436;2023-05-20T03:19:46;6.90;;;2.78;;
40729;SDS011;26418;50.070;8.436;2023-05-20T03:22:12;8.75;;;3.53;;
40729;SDS011;26418;50.070;8.436;2023-05-20T03:24:37;4.40;;;2.92;;
40729;SDS011;26418;50.070;8.436;2023-05-20T03:27:03;4.63;;;2.80;;
40729;SDS011;26418;50.070;8.436;2023-05-20T03:29:29;5.18;;;2.67;;
40729;SDS011;26418;50.070;8.436;2023-05-20T03:31:55;4.20;;;3.05;;
40729;SDS011;26418;50.070;8.436;2023-05-20T03:34:21;5.63;;;3.22;;
40729;SDS011;26418;50.070;8.436;2023-05-20T03:36:46;6.30;;;3.53;;
40729;SDS011;26418;50.070;8.436;2023-05-20T03:39:12;5.20;;;3.13;;
40729;SDS011;26418;50.070;8.436;2023-05-20T03:41:37;6.18;;;3.13;;
40729;SDS011;26418;50.070;8.436;2023-05-20T03:44:03;5.75;;;3.22;;
40729;SDS011;26418;50.070;8.436;2023-05-20T03:46:29;4.30;;;3.38;;
40729;SDS011;26418;50.070;8.436;2023-05-20T03:48:56;4.25;;;3.20;;
40729;SDS011;26418;50.070;8.436;2023-05-20T03:51:22;4.35;;;3.05;;
40729;SDS011;26418;50.070;8.436;2023-05-20T03:53:47;4.57;;;3.13;;
40729;SDS011;26418;50.070;8.436;2023-05-20T03:56:13;7.43;;;3.20;;
40729;SDS011;26418;50.070;8.436;2023-05-20T03:58:38;4.22;;;2.95;;
40729;SDS011;26418;50.070;8.436;2023-05-20T04:01:04;7.25;;;3.63;;
40729;SDS011;26418;50.070;8.436;2023-05-20T04:03:29;10.57;;;3.50;;
40729;SDS011;26418;50.070;8.436;2023-05-20T04:05:58;5.47;;;2.72;;
40729;SDS011;26418;50.070;8.436;2023-05-20T04:08:24;5.00;;;3.00;;
40729;SDS011;26418;50.070;8.436;2023-05-20T04:10:55;6.05;;;2.92;;
40729;SDS011;26418;50.070;8.436;2023-05-20T04:13:21;4.05;;;3.00;;
40729;SDS011;26418;50.070;8.436;2023-05-20T04:15:49;4.00;;;2.92;;
40729;SDS011;26418;50.070;8.436;2023-05-20T04:18:16;7.35;;;3.10;;
40729;SDS011;26418;50.070;8.436;2023-05-20T04:20:42;3.97;;;3.05;;
40729;SDS011;26418;50.070;8.436;2023-05-20T04:23:08;4.82;;;3.58;;
40729;SDS011;26418;50.070;8.436;2023-05-20T04:25:34;4.78;;;3.47;;
40729;SDS011;26418;50.070;8.436;2023-05-20T04:28:00;5.97;;;3.80;;
40729;SDS011;26418;50.070;8.436;2023-05-20T04:30:26;7.55;;;3.03;;
40729;SDS011;26418;50.070;8.436;2023-05-20T04:32:52;6.18;;;4.00;;
40729;SDS011;26418;50.070;8.436;2023-05-20T04:35:18;5.47;;;3.58;;
40729;SDS011;26418;50.070;8.436;2023-05-20T04:37:44;4.35;;;3.00;;
40729;SDS011;26418;50.070;8.436;2023-05-20T04:40:12;5.00;;;3.42;;
40729;SDS011;26418;50.070;8.436;2023-05-20T04:42:38;8.10;;;4.05;;
40729;SDS011;26418;50.070;8.436;2023-05-20T04:45:03;5.68;;;3.78;;
40729;SDS011;26418;50.070;8.436;2023-05-20T04:47:30;7.28;;;3.70;;
40729;SDS011;26418;50.070;8.436;2023-05-20T04:50:02;5.60;;;3.70;;
40729;SDS011;26418;50.070;8.436;2023-05-20T04:52:29;4.53;;;3.38;;
40729;SDS011;26418;50.070;8.436;2023-05-20T04:54:55;6.28;;;3.85;;
40729;SDS011;26418;50.070;8.436;2023-05-20T04:57:22;10.00;;;4.10;;
40729;SDS011;26418;50.070;8.436;2023-05-20T04:59:47;6.85;;;3.75;;
40729;SDS011;26418;50.070;8.436;2023-05-20T05:02:13;6.10;;;3.95;;
40729;SDS011;26418;50.070;8.436;2023-05-20T05:04:39;5.57;;;3.88;;
40729;SDS011;26418;50.070;8.436;2023-05-20T05:07:04;4.13;;;3.60;;
40729;SDS011;26418;50.070;8.436;2023-05-20T05:09:30;7.70;;;4.03;;
40729;SDS011;26418;50.070;8.436;2023-05-20T05:11:56;8.38;;;4.28;;
40729;SDS011;26418;50.070;8.436;2023-05-20T05:14:21;8.30;;;4.22;;
40729;SDS011;26418;50.070;8.436;2023-05-20T05:16:48;7.30;;;4.20;;
40729;SDS011;26418;50.070;8.436;2023-05-20T05:19:13;7.07;;;4.45;;
40729;SDS011;26418;50.070;8.436;2023-05-20T05:21:39;6.45;;;4.10;;
40729;SDS011;26418;50.070;8.436;2023-05-20T05:24:05;5.55;;;4.22;;
40729;SDS011;26418;50.070;8.436;2023-05-20T05:26:31;12.00;;;4.90;;
40729;SDS011;26418;50.070;8.436;2023-05-20T05:28:56;6.03;;;4.07;;
40729;SDS011;26418;50.070;8.436;2023-05-20T05:31:22;6.93;;;3.92;;
40729;SDS011;26418;50.070;8.436;2023-05-20T05:33:47;5.70;;;3.95;;
40729;SDS011;26418;50.070;8.436;2023-05-20T05:36:14;7.70;;;3.38;;
40729;SDS011;26418;50.070;8.436;2023-05-20T05:38:40;4.05;;;3.63;;
40729;SDS011;26418;50.070;8.436;2023-05-20T05:41:06;7.25;;;4.20;;
40729;SDS011;26418;50.070;8.436;2023-05-20T05:43:32;6.65;;;4.40;;
40729;SDS011;26418;50.070;8.436;2023-05-20T05:45:57;8.32;;;4.63;;
40729;SDS011;26418;50.070;8.436;2023-05-20T05:48:23;6.90;;;4.43;;
40729;SDS011;26418;50.070;8.436;2023-05-20T05:50:49;5.65;;;3.92;;
40729;SDS011;26418;50.070;8.436;2023-05-20T05:53:14;8.35;;;4.93;;
40729;SDS011;26418;50.070;8.436;2023-05-20T05:55:40;5.80;;;4.40;;
40729;SDS011;26418;50.070;8.436;2023-05-20T05:58:06;7.40;;;4.68;;
40729;SDS011;26418;50.070;8.436;2023-05-20T06:00:31;7.30;;;4.75;;
40729;SDS011;26418;50.070;8.436;2023-05-20T06:02:57;5.57;;;3.58;;
40729;SDS011;26418;50.070;8.436;2023-05-20T06:05:22;10.32;;;3.88;;
40729;SDS011;26418;50.070;8.436;2023-05-20T06:07:48;7.75;;;4.80;;
40729;SDS011;26418;50.070;8.436;2023-05-20T06:10:13;9.18;;;5.10;;
40729;SDS011;26418;50.070;8.436;2023-05-20T06:12:39;5.68;;;4.50;;
40729;SDS011;26418;50.070;8.436;2023-05-20T06:15:04;6.13;;;4.55;;
40729;SDS011;26418;50.070;8.436;2023-05-20T06:17:31;6.28;;;4.32;;
40729;SDS011;26418;50.070;8.436;2023-05-20T06:19:57;8.27;;;4.70;;
40729;SDS011;26418;50.070;8.436;2023-05-20T06:22:22;8.15;;;4.43;;
40729;SDS011;26418;50.070;8.436;2023-05-20T06:24:48;10.23;;;5.20;;
40729;SDS011;26418;50.070;8.436;2023-05-20T06:27:14;7.88;;;4.65;;
40729;SDS011;26418;50.070;8.436;2023-05-20T06:29:39;7.78;;;5.15;;
40729;SDS011;26418;50.070;8.436;2023-05-20T06:32:05;9.13;;;5.05;;
40729;SDS011;26418;50.070;8.436;2023-05-20T06:34:31;8.55;;;4.60;;
40729;SDS011;26418;50.070;8.436;2023-05-20T06:36:57;8.98;;;4.80;;
40729;SDS011;26418;50.070;8.436;2023-05-20T06:39:23;6.53;;;4.80;;
40729;SDS011;26418;50.070;8.436;2023-05-20T06:41:49;6.97;;;4.93;;
40729;SDS011;26418;50.070;8.436;2023-05-20T06:44:16;8.27;;;5.30;;
40729;SDS011;26418;50.070;8.436;2023-05-20T06:46:42;16.55;;;5.65;;
40729;SDS011;26418;50.070;8.436;2023-05-20T06:49:07;9.63;;;5.50;;
40729;SDS011;26418;50.070;8.436;2023-05-20T06:51:33;6.20;;;4.88;;
40729;SDS011;26418;50.070;8.436;2023-05-20T06:53:58;9.20;;;5.20;;
40729;SDS011;26418;50.070;8.436;2023-05-20T06:56:24;8.57;;;5.15;;
40729;SDS011;26418;50.070;8.436;2023-05-20T06:58:49;9.73;;;5.85;;
40729;SDS011;26418;50.070;8.436;2023-05-20T07:01:15;8.50;;;5.30;;
40729;SDS011;26418;50.070;8.436;2023-05-20T07:03:40;6.93;;;5.07;;
40729;SDS011;26418;50.070;8.436;2023-05-20T07:06:08;9.82;;;5.68;;
40729;SDS011;26418;50.070;8.436;2023-05-20T07:08:34;9.07;;;5.22;;
40729;SDS011;26418;50.070;8.436;2023-05-20T07:10:59;7.40;;;5.47;;
40729;SDS011;26418;50.070;8.436;2023-05-20T07:13:25;9.75;;;5.53;;
40729;SDS011;26418;50.070;8.436;2023-05-20T07:15:50;9.75;;;5.80;;
40729;SDS011;26418;50.070;8.436;2023-05-20T07:18:19;8.65;;;5.50;;
40729;SDS011;26418;50.070;8.436;2023-05-20T07:20:45;7.88;;;5.53;;
40729;SDS011;26418;50.070;8.436;2023-05-20T07:23:11;8.20;;;5.40;;
40729;SDS011;26418;50.070;8.436;2023-05-20T07:25:36;10.70;;;5.93;;
40729;SDS011;26418;50.070;8.436;2023-05-20T07:28:02;9.32;;;5.35;;
40729;SDS011;26418;50.070;8.436;2023-05-20T07:30:28;11.05;;;6.22;;
40729;SDS011;26418;50.070;8.436;2023-05-20T07:32:53;9.30;;;6.43;;
40729;SDS011;26418;50.070;8.436;2023-05-20T07:35:19;6.45;;;5.63;;
40729;SDS011;26418;50.070;8.436;2023-05-20T07:37:44;12.75;;;6.20;;
40729;SDS011;26418;50.070;8.436;2023-05-20T07:40:10;8.80;;;6.32;;
40729;SDS011;26418;50.070;8.436;2023-05-20T07:42:36;6.15;;;5.25;;
40729;SDS011;26418;50.070;8.436;2023-05-20T07:45:01;13.93;;;6.22;;
40729;SDS011;26418;50.070;8.436;2023-05-20T07:47:27;8.80;;;6.65;;
40729;SDS011;26418;50.070;8.436;2023-05-20T07:49:53;8.57;;;6.20;;
40729;SDS011;26418;50.070;8.436;2023-05-20T07:52:18;7.55;;;6.15;;
40729;SDS011;26418;50.070;8.436;2023-05-20T07:54:44;8.45;;;6.43;;
40729;SDS011;26418;50.070;8.436;2023-05-20T07:57:09;9.48;;;7.07;;
40729;SDS011;26418;50.070;8.436;2023-05-20T07:59:35;9.23;;;6.78;;
40729;SDS011;26418;50.070;8.436;2023-05-20T08:02:00;9.85;;;6.70;;
40729;SDS011;26418;50.070;8.436;2023-05-20T08:04:26;11.32;;;6.32;;
40729;SDS011;26418;50.070;8.436;2023-05-20T08:06:52;12.82;;;7.85;;
40729;SDS011;26418;50.070;8.436;2023-05-20T08:09:18;7.85;;;5.93;;
40729;SDS011;26418;50.070;8.436;2023-05-20T08:11:44;11.45;;;6.45;;
40729;SDS011;26418;50.070;8.436;2023-05-20T08:14:09;11.55;;;7.05;;
40729;SDS011;26418;50.070;8.436;2023-05-20T08:16:35;14.25;;;7.03;;
40729;SDS011;26418;50.070;8.436;2023-05-20T08:19:01;8.65;;;7.25;;
40729;SDS011;26418;50.070;8.436;2023-05-20T08:21:27;8.43;;;7.30;;
40729;SDS011;26418;50.070;8.436;2023-05-20T08:23:52;10.80;;;7.35;;
40729;SDS011;26418;50.070;8.436;2023-05-20T08:26:18;9.77;;;6.57;;
40729;SDS011;26418;50.070;8.436;2023-05-20T08:28:43;8.65;;;6.80;;
40729;SDS011;26418;50.070;8.436;2023-05-20T08:31:09;11.02;;;7.45;;
40729;SDS011;26418;50.070;8.436;2023-05-20T08:33:35;10.02;;;7.50;;
40729;SDS011;26418;50.070;8.436;2023-05-20T08:36:00;9.80;;;6.53;;
40729;SDS011;26418;50.070;8.436;2023-05-20T08:38:26;13.95;;;7.00;;
40729;SDS011;26418;50.070;8.436;2023-05-20T08:40:55;9.50;;;7.22;;
40729;SDS011;26418;50.070;8.436;2023-05-20T08:43:22;11.75;;;7.60;;
40729;SDS011;26418;50.070;8.436;2023-05-20T08:45:48;13.93;;;7.82;;
40729;SDS011;26418;50.070;8.436;2023-05-20T08:48:15;25.45;;;7.88;;
40729;SDS011;26418;50.070;8.436;2023-05-20T08:50:42;7.95;;;6.80;;
40729;SDS011;26418;50.070;8.436;2023-05-20T08:53:13;10.45;;;6.57;;
40729;SDS011;26418;50.070;8.436;2023-05-20T08:55:43;11.63;;;7.97;;
40729;SDS011;26418;50.070;8.436;2023-05-20T08:58:11;15.27;;;7.78;;
40729;SDS011;26418;50.070;8.436;2023-05-20T09:00:39;10.38;;;7.93;;
40729;SDS011;26418;50.070;8.436;2023-05-20T09:03:06;12.55;;;8.50;;
40729;SDS011;26418;50.070;8.436;2023-05-20T09:05:32;10.73;;;8.77;;
40729;SDS011;26418;50.070;8.436;2023-05-20T09:08:08;10.93;;;8.18;;
40729;SDS011;26418;50.070;8.436;2023-05-20T09:10:38;15.75;;;9.13;;
40729;SDS011;26418;50.070;8.436;2023-05-20T09:13:05;10.45;;;8.65;;
40729;SDS011;26418;50.070;8.436;2023-05-20T09:15:31;12.45;;;8.60;;
40729;SDS011;26418;50.070;8.436;2023-05-20T09:18:04;11.50;;;8.27;;
40729;SDS011;26418;50.070;8.436;2023-05-20T09:20:33;10.60;;;8.07;;
40729;SDS011;26418;50.070;8.436;2023-05-20T09:23:01;12.75;;;8.35;;
40729;SDS011;26418;50.070;8.436;2023-05-20T09:25:31;9.57;;;8.32;;
40729;SDS011;26418;50.070;8.436;2023-05-20T09:27:57;9.25;;;8.23;;
40729;SDS011;26418;50.070;8.436;2023-05-20T09:30:23;13.35;;;8.80;;
40729;SDS011;26418;50.070;8.436;2023-05-20T09:32:52;12.43;;;8.73;;
40729;SDS011;26418;50.070;8.436;2023-05-20T09:35:22;10.60;;;7.93;;
40729;SDS011;26418;50.070;8.436;2023-05-20T09:37:50;11.57;;;7.88;;
40729;SDS011;26418;50.070;8.436;2023-05-20T09:40:18;11.10;;;8.15;;
40729;SDS011;26418;50.070;8.436;2023-05-20T09:43:09;16.50;;;9.00;;
40729;SDS011;26418;50.070;8.436;2023-05-20T09:45:36;17.15;;;8.27;;
40729;SDS011;26418;50.070;8.436;2023-05-20T09:48:02;11.35;;;9.02;;
40729;SDS011;26418;50.070;8.436;2023-05-20T09:50:29;12.90;;;9.27;;
40729;SDS011;26418;50.070;8.436;2023-05-20T09:52:56;22.55;;;13.00;;
40729;SDS011;26418;50.070;8.436;2023-05-20T09:55:27;18.77;;;9.70;;
40729;SDS011;26418;50.070;8.436;2023-05-20T09:57:54;10.32;;;7.75;;
40729;SDS011;26418;50.070;8.436;2023-05-20T10:00:20;11.88;;;8.43;;
40729;SDS011;26418;50.070;8.436;2023-05-20T10:02:49;13.00;;;7.95;;
40729;SDS011;26418;50.070;8.436;2023-05-20T10:05:20;11.57;;;9.18;;
40729;SDS011;26418;50.070;8.436;2023-05-20T10:07:52;11.35;;;7.47;;
40729;SDS011;26418;50.070;8.436;2023-05-20T10:19:36;11.57;;;8.23;;
40729;SDS011;26418;50.070;8.436;2023-05-20T10:22:05;11.02;;;7.95;;
40729;SDS011;26418;50.070;8.436;2023-05-20T10:44:25;11.85;;;7.70;;
40729;SDS011;26418;50.070;8.436;2023-05-20T10:47:00;12.80;;;8.23;;
40729;SDS011;26418;50.070;8.436;2023-05-20T10:49:31;9.48;;;8.00;;
40729;SDS011;26418;50.070;8.436;2023-05-20T10:51:59;13.10;;;8.80;;
40729;SDS011;26418;50.070;8.436;2023-05-20T10:54:24;10.38;;;8.40;;
40729;SDS011;26418;50.070;8.436;2023-05-20T10:56:53;10.10;;;8.20;;
40729;SDS011;26418;50.070;8.436;2023-05-20T10:59:19;10.98;;;8.55;;
40729;SDS011;26418;50.070;8.436;2023-05-20T11:01:46;9.73;;;7.63;;
40729;SDS011;26418;50.070;8.436;2023-05-20T11:04:13;11.35;;;8.30;;
40729;SDS011;26418;50.070;8.436;2023-05-20T11:06:48;18.02;;;9.02;;
40729;SDS011;26418;50.070;8.436;2023-05-20T11:09:18;11.63;;;8.32;;
40729;SDS011;26418;50.070;8.436;2023-05-20T11:11:43;10.40;;;8.65;;
40729;SDS011;26418;50.070;8.436;2023-05-20T11:14:09;9.95;;;7.68;;
40729;SDS011;26418;50.070;8.436;2023-05-20T11:16:38;10.90;;;8.52;;
40729;SDS011;26418;50.070;8.436;2023-05-20T11:19:06;10.02;;;7.97;;
40729;SDS011;26418;50.070;8.436;2023-05-20T11:21:32;10.55;;;8.05;;
40729;SDS011;26418;50.070;8.436;2023-05-20T11:23:58;9.70;;;7.93;;
40729;SDS011;26418;50.070;8.436;2023-05-20T11:26:23;8.32;;;7.32;;
40729;SDS011;26418;50.070;8.436;2023-05-20T11:28:48;8.50;;;7.65;;
40729;SDS011;26418;50.070;8.436;2023-05-20T11:31:14;10.57;;;7.43;;
40729;SDS011;26418;50.070;8.436;2023-05-20T11:33:42;18.15;;;8.32;;
40729;SDS011;26418;50.070;8.436;2023-05-20T11:36:08;8.30;;;6.80;;
40729;SDS011;26418;50.070;8.436;2023-05-20T11:38:35;16.38;;;7.78;;
40729;SDS011;26418;50.070;8.436;2023-05-20T11:44:22;10.98;;;7.60;;
40729;SDS011;26418;50.070;8.436;2023-05-20T11:46:48;10.57;;;7.53;;
40729;SDS011;26418;50.070;8.436;2023-05-20T11:49:23;13.18;;;6.85;;
40729;SDS011;26418;50.070;8.436;2023-05-20T11:51:48;7.00;;;6.30;;
40729;SDS011;26418;50.070;8.436;2023-05-20T11:54:14;9.27;;;7.53;;
40729;SDS011;26418;50.070;8.436;2023-05-20T11:56:39;15.20;;;6.85;;
40729;SDS011;26418;50.070;8.436;2023-05-20T11:59:09;11.35;;;7.13;;
40729;SDS011;26418;50.070;8.436;2023-05-20T12:01:35;9.95;;;7.00;;
40729;SDS011;26418;50.070;8.436;2023-05-20T12:04:09;8.77;;;7.28;;
40729;SDS011;26418;50.070;8.436;2023-05-20T12:06:40;12.10;;;8.30;;
40729;SDS011;26418;50.070;8.436;2023-05-20T12:09:08;8.07;;;7.17;;
40729;SDS011;26418;50.070;8.436;2023-05-20T12:11:38;8.85;;;7.43;;
40729;SDS011;26418;50.070;8.436;2023-05-20T12:14:08;10.90;;;7.70;;
40729;SDS011;26418;50.070;8.436;2023-05-20T12:16:34;9.05;;;7.45;;
40729;SDS011;26418;50.070;8.436;2023-05-20T12:19:00;8.13;;;7.18;;
40729;SDS011;26418;50.070;8.436;2023-05-20T12:21:27;10.55;;;7.38;;
40729;SDS011;26418;50.070;8.436;2023-05-20T12:23:53;9.07;;;7.15;;
40729;SDS011;26418;50.070;8.436;2023-05-20T12:26:28;11.80;;;7.90;;
40729;SDS011;26418;50.070;8.436;2023-05-20T12:28:53;9.60;;;8.20;;
40729;SDS011;26418;50.070;8.436;2023-05-20T12:31:20;10.32;;;7.57;;
40729;SDS011;26418;50.070;8.436;2023-05-20T12:33:45;11.27;;;8.23;;
40729;SDS011;26418;50.070;8.436;2023-05-20T12:36:11;8.85;;;7.60;;
40729;SDS011;26418;50.070;8.436;2023-05-20T12:38:37;9.68;;;7.18;;
40729;SDS011;26418;50.070;8.436;2023-05-20T12:41:03;9.75;;;7.70;;
40729;SDS011;26418;50.070;8.436;2023-05-20T12:43:29;10.98;;;8.20;;
40729;SDS011;26418;50.070;8.436;2023-05-20T12:45:57;11.75;;;8.20;;
40729;SDS011;26418;50.070;8.436;2023-05-20T12:48:25;13.88;;;8.95;;
40729;SDS011;26418;50.070;8.436;2023-05-20T12:50:50;9.75;;;8.18;;
40729;SDS011;26418;50.070;8.436;2023-05-20T12:53:16;11.02;;;8.55;;
40729;SDS011;26418;50.070;8.436;2023-05-20T12:55:43;10.48;;;7.90;;
40729;SDS011;26418;50.070;8.436;2023-05-20T12:58:09;10.68;;;8.32;;
40729;SDS011;26418;50.070;8.436;2023-05-20T13:00:35;10.43;;;8.23;;
40729;SDS011;26418;50.070;8.436;2023-05-20T13:03:03;27.80;;;19.45;;
40729;SDS011;26418;50.070;8.436;2023-05-20T13:05:31;11.43;;;8.90;;
40729;SDS011;26418;50.070;8.436;2023-05-20T13:07:56;14.90;;;8.80;;
40729;SDS011;26418;50.070;8.436;2023-05-20T13:10:22;15.60;;;9.13;;
40729;SDS011;26418;50.070;8.436;2023-05-20T13:12:47;10.60;;;9.10;;
40729;SDS011;26418;50.070;8.436;2023-05-20T13:15:13;13.48;;;10.10;;
40729;SDS011;26418;50.070;8.436;2023-05-20T13:17:42;16.90;;;9.88;;
40729;SDS011;26418;50.070;8.436;2023-05-20T13:20:10;26.52;;;19.02;;
40729;SDS011;26418;50.070;8.436;2023-05-20T13:22:37;21.95;;;15.40;;
40729;SDS011;26418;50.070;8.436;2023-05-20T13:25:02;16.85;;;11.50;;
40729;SDS011;26418;50.070;8.436;2023-05-20T13:27:29;20.02;;;14.15;;
40729;SDS011;26418;50.070;8.436;2023-05-20T13:29:54;15.13;;;12.52;;
40729;SDS011;26418;50.070;8.436;2023-05-20T13:32:20;29.85;;;21.30;;
40729;SDS011;26418;50.070;8.436;2023-05-20T13:34:45;17.95;;;12.00;;
40729;SDS011;26418;50.070;8.436;2023-05-20T13:37:11;16.00;;;11.05;;
40729;SDS011;26418;50.070;8.436;2023-05-20T13:39:36;12.93;;;9.07;;
40729;SDS011;26418;50.070;8.436;2023-05-20T13:42:02;12.95;;;9.75;;
40729;SDS011;26418;50.070;8.436;2023-05-20T13:44:28;16.80;;;13.32;;
40729;SDS011;26418;50.070;8.436;2023-05-20T13:46:54;11.60;;;9.70;;
40729;SDS011;26418;50.070;8.436;2023-05-20T13:49:20;12.48;;;9.35;;
40729;SDS011;26418;50.070;8.436;2023-05-20T13:51:45;10.98;;;9.40;;
40729;SDS011;26418;50.070;8.436;2023-05-20T13:54:11;13.82;;;10.57;;
40729;SDS011;26418;50.070;8.436;2023-05-20T13:56:36;23.80;;;15.20;;
40729;SDS011;26418;50.070;8.436;2023-05-20T13:59:02;18.38;;;10.23;;
40729;SDS011;26418;50.070;8.436;2023-05-20T14:01:29;13.02;;;9.10;;
40729;SDS011;26418;50.070;8.436;2023-05-20T14:03:56;10.82;;;8.93;;
40729;SDS011;26418;50.070;8.436;2023-05-20T14:06:22;12.20;;;9.50;;
40729;SDS011;26418;50.070;8.436;2023-05-20T14:08:48;10.52;;;8.80;;
40729;SDS011;26418;50.070;8.436;2023-05-20T14:11:14;11.77;;;9.32;;
40729;SDS011;26418;50.070;8.436;2023-05-20T14:13:39;11.90;;;8.30;;
40729;SDS011;26418;50.070;8.436;2023-05-20T14:16:05;12.30;;;8.95;;
40729;SDS011;26418;50.070;8.436;2023-05-20T14:18:31;11.48;;;9.05;;
40729;SDS011;26418;50.070;8.436;2023-05-20T14:20:56;11.43;;;8.30;;
40729;SDS011;26418;50.070;8.436;2023-05-20T14:23:22;12.80;;;8.73;;
40729;SDS011;26418;50.070;8.436;2023-05-20T14:25:48;12.50;;;8.23;;
40729;SDS011;26418;50.070;8.436;2023-05-20T14:28:13;12.05;;;9.43;;
40729;SDS011;26418;50.070;8.436;2023-05-20T14:30:39;14.73;;;9.05;;
40729;SDS011;26418;50.070;8.436;2023-05-20T14:33:04;9.73;;;8.35;;
40729;SDS011;26418;50.070;8.436;2023-05-20T14:35:30;11.00;;;8.82;;
40729;SDS011;26418;50.070;8.436;2023-05-20T14:37:55;12.15;;;9.48;;
40729;SDS011;26418;50.070;8.436;2023-05-20T14:40:21;10.45;;;8.70;;
40729;SDS011;26418;50.070;8.436;2023-05-20T14:42:46;13.48;;;9.32;;
40729;SDS011;26418;50.070;8.436;2023-05-20T14:45:12;10.32;;;8.15;;
40729;SDS011;26418;50.070;8.436;2023-05-20T14:47:37;12.43;;;9.32;;
40729;SDS011;26418;50.070;8.436;2023-05-20T14:50:06;13.88;;;9.30;;
40729;SDS011;26418;50.070;8.436;2023-05-20T14:52:32;16.88;;;9.85;;
40729;SDS011;26418;50.070;8.436;2023-05-20T14:54:58;13.98;;;10.07;;
40729;SDS011;26418;50.070;8.436;2023-05-20T14:57:23;13.57;;;9.38;;
40729;SDS011;26418;50.070;8.436;2023-05-20T14:59:49;12.75;;;9.20;;
40729;SDS011;26418;50.070;8.436;2023-05-20T15:02:17;11.57;;;9.40;;
40729;SDS011;26418;50.070;8.436;2023-05-20T15:04:44;10.95;;;8.65;;
40729;SDS011;26418;50.070;8.436;2023-05-20T15:07:11;12.32;;;10.40;;
40729;SDS011;26418;50.070;8.436;2023-05-20T15:09:37;14.80;;;9.98;;
40729;SDS011;26418;50.070;8.436;2023-05-20T15:12:03;11.77;;;9.27;;
40729;SDS011;26418;50.070;8.436;2023-05-20T15:14:33;11.98;;;9.55;;
40729;SDS011;26418;50.070;8.436;2023-05-20T15:16:58;14.48;;;9.68;;